Time;durP1;ratioP1;P1;durP2;ratioP2;P2;SDS_P1;SDS_P2;PMS_P1;PMS_P2;Temp;Humidity;BMP_temperature;BMP_pressure;BME280_temperature;BME280_humidity;BME280_pressure;Samples;Min_cycle;Max_cycle;Signal;HPM_P1;HPM_P2
2021/03/23 00:00:55;;;;;;;11.85;5.60;;;;;;;;;;5052678;28;20036;-75
2021/03/23 00:03:26;;;;;;;9.75;4.50;;;;;;;;;;5052106;28;20100;-76
2021/03/23 00:05:52;;;;;;;10.85;5.18;;;;;;;;;;5052604;28;20099;-75
2021/03/23 00:08:21;;;;;;;9.88;5.38;;;;;;;;;;5052085;28;20382;-77
2021/03/23 00:10:47;;;;;;;11.50;5.50;;;;;;;;;;5052330;28;20036;-74
2021/03/23 00:13:14;;;;;;;9.15;5.28;;;;;;;;;;5052384;28;20099;-76
2021/03/23 00:15:42;;;;;;;6.80;4.07;;;;;;;;;;5051851;28;20033;-76
2021/03/23 00:18:08;;;;;;;8.77;4.07;;;;;;;;;;5052634;28;20105;-73
2021/03/23 00:20:34;;;;;;;10.70;5.18;;;;;;;;;;5052463;28;20028;-76
2021/03/23 00:23:00;;;;;;;9.35;4.95;;;;;;;;;;5051870;28;20021;-75
2021/03/23 00:25:27;;;;;;;11.10;5.13;;;;;;;;;;5052205;28;20028;-75
2021/03/23 00:27:53;;;;;;;8.13;4.65;;;;;;;;;;5052198;28;20489;-76
2021/03/23 00:30:19;;;;;;;11.65;5.28;;;;;;;;;;5051787;28;20104;-76
2021/03/23 00:32:45;;;;;;;9.13;4.85;;;;;;;;;;5052171;28;20017;-76
2021/03/23 00:35:12;;;;;;;8.48;4.43;;;;;;;;;;5052087;28;20037;-77
2021/03/23 00:37:39;;;;;;;10.02;5.10;;;;;;;;;;5051825;28;20032;-76
2021/03/23 00:40:08;;;;;;;8.50;4.70;;;;;;;;;;5052286;28;20072;-74
2021/03/23 00:42:34;;;;;;;9.10;4.90;;;;;;;;;;5052112;28;20128;-76
2021/03/23 00:45:01;;;;;;;8.45;5.25;;;;;;;;;;5051633;28;20028;-73
2021/03/23 00:47:27;;;;;;;9.57;5.15;;;;;;;;;;5052041;28;20017;-73
2021/03/23 00:49:53;;;;;;;7.05;4.32;;;;;;;;;;5051952;28;20033;-75
2021/03/23 00:52:19;;;;;;;9.23;4.28;;;;;;;;;;5051437;28;20049;-74
2021/03/23 00:54:45;;;;;;;9.73;5.18;;;;;;;;;;5050564;28;20083;-75
2021/03/23 00:57:12;;;;;;;11.85;6.07;;;;;;;;;;5052137;28;20021;-75
2021/03/23 00:59:38;;;;;;;8.50;4.28;;;;;;;;;;5053511;28;20021;-75
2021/03/23 01:02:04;;;;;;;6.32;3.72;;;;;;;;;;5055826;28;20025;-74
2021/03/23 01:04:30;;;;;;;7.45;4.30;;;;;;;;;;5055351;28;20071;-75
2021/03/23 01:06:56;;;;;;;9.98;4.95;;;;;;;;;;5054407;28;20154;-75
2021/03/23 01:09:23;;;;;;;7.90;4.35;;;;;;;;;;5054435;28;20028;-75
2021/03/23 01:11:49;;;;;;;7.78;3.95;;;;;;;;;;5055238;28;20110;-74
2021/03/23 01:14:15;;;;;;;8.25;4.28;;;;;;;;;;5055503;28;20029;-74
2021/03/23 01:16:41;;;;;;;8.70;4.97;;;;;;;;;;5054387;28;20384;-74
2021/03/23 01:19:07;;;;;;;7.72;4.40;;;;;;;;;;5054028;28;20032;-74
2021/03/23 01:21:34;;;;;;;7.82;4.57;;;;;;;;;;5055405;28;20029;-74
2021/03/23 01:24:00;;;;;;;6.95;3.97;;;;;;;;;;5055388;28;20097;-73
2021/03/23 01:26:26;;;;;;;9.40;4.65;;;;;;;;;;5053714;28;20024;-74
2021/03/23 01:28:52;;;;;;;6.65;3.80;;;;;;;;;;5055373;28;20072;-74
2021/03/23 01:31:19;;;;;;;7.72;4.32;;;;;;;;;;5055259;28;20025;-75
2021/03/23 01:33:45;;;;;;;7.53;3.80;;;;;;;;;;5054793;28;20017;-75
2021/03/23 01:36:11;;;;;;;7.90;4.13;;;;;;;;;;5055183;28;20032;-75
2021/03/23 01:38:37;;;;;;;7.75;3.97;;;;;;;;;;5054105;28;20029;-75
2021/03/23 01:41:04;;;;;;;9.05;4.38;;;;;;;;;;5054964;28;20029;-74
2021/03/23 01:43:32;;;;;;;8.80;4.40;;;;;;;;;;5055059;28;20075;-74
2021/03/23 01:46:00;;;;;;;7.32;4.05;;;;;;;;;;5055075;28;20104;-74
2021/03/23 01:48:28;;;;;;;7.18;4.03;;;;;;;;;;5053276;28;20057;-75
2021/03/23 01:50:59;;;;;;;9.25;5.13;;;;;;;;;;5054994;28;20025;-74
2021/03/23 01:53:28;;;;;;;9.15;5.32;;;;;;;;;;5053527;28;20067;-75
2021/03/23 01:55:57;;;;;;;10.93;5.65;;;;;;;;;;5054351;28;20108;-75
2021/03/23 01:58:23;;;;;;;11.77;6.20;;;;;;;;;;5055081;28;20020;-74
2021/03/23 02:00:50;;;;;;;11.07;6.25;;;;;;;;;;5054320;28;20028;-75
2021/03/23 02:03:17;;;;;;;9.52;5.20;;;;;;;;;;5054774;28;20469;-74
2021/03/23 02:05:43;;;;;;;10.43;4.75;;;;;;;;;;5054546;28;20025;-74
2021/03/23 02:08:09;;;;;;;11.88;6.32;;;;;;;;;;5054258;28;20056;-75
2021/03/23 02:10:36;;;;;;;10.57;5.30;;;;;;;;;;5052203;28;20032;-75
2021/03/23 02:13:04;;;;;;;9.48;5.18;;;;;;;;;;5054525;28;20021;-75
2021/03/23 02:15:31;;;;;;;10.38;5.60;;;;;;;;;;5054077;28;20057;-75
2021/03/23 02:18:12;;;;;;;7.97;5.00;;;;;;;;;;5054510;28;20098;-75
2021/03/23 02:20:57;;;;;;;9.43;5.13;;;;;;;;;;5054384;28;20035;-75
2021/03/23 02:23:24;;;;;;;9.55;5.13;;;;;;;;;;5053883;28;20025;-75
2021/03/23 02:25:50;;;;;;;11.05;4.97;;;;;;;;;;5054220;28;20025;-75
2021/03/23 02:28:16;;;;;;;10.05;5.00;;;;;;;;;;5054167;28;20426;-75
2021/03/23 02:30:43;;;;;;;9.10;4.40;;;;;;;;;;5052508;28;20055;-75
2021/03/23 02:33:10;;;;;;;10.05;5.07;;;;;;;;;;5052942;28;20123;-75
2021/03/23 02:35:36;;;;;;;9.65;4.80;;;;;;;;;;5052755;28;20037;-76
2021/03/23 02:38:03;;;;;;;7.55;4.07;;;;;;;;;;5053881;28;20048;-76
2021/03/23 02:40:30;;;;;;;10.23;6.15;;;;;;;;;;5052805;28;20032;-75
2021/03/23 02:42:57;;;;;;;8.73;4.70;;;;;;;;;;5053587;28;20017;-75
2021/03/23 02:45:24;;;;;;;8.73;4.60;;;;;;;;;;5053942;28;20039;-75
2021/03/23 02:47:50;;;;;;;10.35;4.75;;;;;;;;;;5053783;28;20025;-75
2021/03/23 02:50:17;;;;;;;9.43;4.47;;;;;;;;;;5052067;28;20025;-76
2021/03/23 02:52:43;;;;;;;8.48;4.57;;;;;;;;;;5053651;28;20486;-76
2021/03/23 02:55:10;;;;;;;8.27;4.45;;;;;;;;;;5053589;28;20040;-76
2021/03/23 02:57:36;;;;;;;9.68;5.18;;;;;;;;;;5053504;28;20090;-76
2021/03/23 03:00:04;;;;;;;9.55;5.03;;;;;;;;;;5053687;28;20017;-75
2021/03/23 03:02:30;;;;;;;9.43;4.68;;;;;;;;;;5053516;28;20075;-75
2021/03/23 03:04:56;;;;;;;10.77;5.82;;;;;;;;;;5051809;28;20028;-75
2021/03/23 03:07:22;;;;;;;10.32;4.88;;;;;;;;;;5053490;28;20377;-75
2021/03/23 03:09:49;;;;;;;8.77;4.75;;;;;;;;;;5052202;28;20025;-75
2021/03/23 03:12:15;;;;;;;8.30;5.07;;;;;;;;;;5053008;28;20021;-75
2021/03/23 03:14:41;;;;;;;11.35;6.57;;;;;;;;;;5053409;28;20152;-76
2021/03/23 03:17:07;;;;;;;9.30;4.88;;;;;;;;;;5053473;28;20044;-75
2021/03/23 03:19:33;;;;;;;9.27;5.55;;;;;;;;;;5052804;28;20025;-75
2021/03/23 03:21:59;;;;;;;9.95;5.32;;;;;;;;;;5053332;28;20032;-75
2021/03/23 03:24:26;;;;;;;11.63;5.68;;;;;;;;;;5053174;28;20029;-75
2021/03/23 03:26:52;;;;;;;10.00;5.68;;;;;;;;;;5051437;28;20035;-76
2021/03/23 03:29:18;;;;;;;11.13;6.20;;;;;;;;;;5053156;28;20109;-75
2021/03/23 03:31:44;;;;;;;11.73;7.35;;;;;;;;;;5052965;28;20021;-76
2021/03/23 03:34:10;;;;;;;9.32;5.32;;;;;;;;;;5052603;28;20025;-75
2021/03/23 03:36:37;;;;;;;10.40;5.72;;;;;;;;;;5053117;28;20426;-76
2021/03/23 03:39:05;;;;;;;10.75;6.53;;;;;;;;;;5051771;28;20389;-75
2021/03/23 03:41:31;;;;;;;9.88;6.32;;;;;;;;;;5052486;28;20115;-75
2021/03/23 03:43:58;;;;;;;9.57;5.80;;;;;;;;;;5052773;28;20044;-75
2021/03/23 03:46:24;;;;;;;10.02;6.10;;;;;;;;;;5052417;28;20100;-76
2021/03/23 03:48:50;;;;;;;11.60;6.18;;;;;;;;;;5052791;28;20039;-75
2021/03/23 03:51:16;;;;;;;11.82;5.97;;;;;;;;;;5052522;28;20067;-74
2021/03/23 03:53:43;;;;;;;12.85;7.15;;;;;;;;;;5052330;28;20101;-74
2021/03/23 03:56:09;;;;;;;12.35;6.50;;;;;;;;;;5052891;28;20064;-74
2021/03/23 03:58:36;;;;;;;11.90;6.45;;;;;;;;;;5052731;28;20025;-73
2021/03/23 04:01:02;;;;;;;12.57;6.78;;;;;;;;;;5050964;28;20021;-73
2021/03/23 04:03:29;;;;;;;9.52;5.80;;;;;;;;;;5052456;28;20044;-74
2021/03/23 04:05:57;;;;;;;13.20;6.72;;;;;;;;;;5052487;28;20025;-74
2021/03/23 04:08:25;;;;;;;11.63;6.85;;;;;;;;;;5052081;28;20020;-74
2021/03/23 04:10:52;;;;;;;11.43;6.38;;;;;;;;;;5052340;28;20025;-75
2021/03/23 04:13:18;;;;;;;10.73;6.13;;;;;;;;;;5052386;28;20025;-74
2021/03/23 04:15:46;;;;;;;13.05;6.95;;;;;;;;;;5052112;28;20390;-74
2021/03/23 04:18:13;;;;;;;10.95;6.05;;;;;;;;;;5051214;28;20055;-74
2021/03/23 04:20:39;;;;;;;11.32;7.00;;;;;;;;;;5052246;28;20032;-74
2021/03/23 04:23:06;;;;;;;11.05;6.55;;;;;;;;;;5050645;28;20055;-74
2021/03/23 04:25:33;;;;;;;11.68;6.97;;;;;;;;;;5052301;28;20291;-74
2021/03/23 04:28:00;;;;;;;9.77;6.32;;;;;;;;;;5052168;28;20096;-74
2021/03/23 04:30:27;;;;;;;12.30;7.10;;;;;;;;;;5050594;28;20035;-74
2021/03/23 04:32:55;;;;;;;11.25;6.60;;;;;;;;;;5052172;28;20424;-74
2021/03/23 04:35:29;;;;;;;15.90;7.55;;;;;;;;;;5055575;28;20521;-74
2021/03/23 04:37:56;;;;;;;11.55;6.68;;;;;;;;;;5056451;28;20032;-75
2021/03/23 04:40:22;;;;;;;10.50;6.97;;;;;;;;;;5056209;28;20021;-74
2021/03/23 04:42:48;;;;;;;9.02;5.80;;;;;;;;;;5055834;28;20024;-74
2021/03/23 04:45:15;;;;;;;10.98;6.90;;;;;;;;;;5056143;28;20028;-74
2021/03/23 04:47:41;;;;;;;12.65;6.75;;;;;;;;;;5056157;28;20104;-74
2021/03/23 04:50:08;;;;;;;10.18;6.35;;;;;;;;;;5055735;28;20043;-74
2021/03/23 04:52:34;;;;;;;12.90;7.53;;;;;;;;;;5055860;28;20047;-74
2021/03/23 04:55:00;;;;;;;11.73;6.53;;;;;;;;;;5054880;28;20112;-74
2021/03/23 04:57:27;;;;;;;12.48;6.32;;;;;;;;;;5055587;28;20040;-74
2021/03/23 04:59:53;;;;;;;10.68;6.18;;;;;;;;;;5054601;28;20551;-74
2021/03/23 05:02:19;;;;;;;12.90;6.85;;;;;;;;;;5055783;28;20025;-74
2021/03/23 05:04:45;;;;;;;11.30;5.93;;;;;;;;;;5055414;28;20079;-74
2021/03/23 05:07:11;;;;;;;12.43;6.78;;;;;;;;;;5055758;28;20032;-74
2021/03/23 05:09:37;;;;;;;11.73;7.90;;;;;;;;;;5055698;28;20029;-76
2021/03/23 05:12:04;;;;;;;13.00;7.47;;;;;;;;;;5055382;28;20465;-77
2021/03/23 05:14:30;;;;;;;13.95;7.90;;;;;;;;;;5055868;28;20037;-75
2021/03/23 05:16:56;;;;;;;13.43;7.60;;;;;;;;;;5055757;28;20029;-74
2021/03/23 05:19:22;;;;;;;13.00;7.55;;;;;;;;;;5053915;28;20031;-74
2021/03/23 05:21:48;;;;;;;14.10;8.23;;;;;;;;;;5055447;28;20029;-76
2021/03/23 05:24:15;;;;;;;15.20;8.23;;;;;;;;;;5055479;28;20049;-76
2021/03/23 05:26:41;;;;;;;16.63;9.30;;;;;;;;;;5054904;28;20021;-74
2021/03/23 05:29:07;;;;;;;13.40;8.02;;;;;;;;;;5055322;28;20092;-74
2021/03/23 05:31:33;;;;;;;13.45;8.05;;;;;;;;;;5055453;28;20071;-74
2021/03/23 05:34:00;;;;;;;12.68;7.97;;;;;;;;;;5055105;28;20040;-76
2021/03/23 05:36:26;;;;;;;14.07;7.60;;;;;;;;;;5055476;28;20056;-75
2021/03/23 05:38:52;;;;;;;13.70;7.45;;;;;;;;;;5054732;28;20063;-74
2021/03/23 05:41:19;;;;;;;12.40;7.57;;;;;;;;;;5055165;28;20025;-74
2021/03/23 05:43:55;;;;;;;11.98;7.63;;;;;;;;;;5053687;28;20044;-74
2021/03/23 05:46:29;;;;;;;14.38;8.25;;;;;;;;;;5054620;28;20029;-74
2021/03/23 05:48:58;;;;;;;13.95;8.35;;;;;;;;;;5055007;28;20155;-75
2021/03/23 05:51:31;;;;;;;12.38;7.95;;;;;;;;;;5055129;28;20048;-75
2021/03/23 05:53:59;;;;;;;15.13;9.48;;;;;;;;;;5053355;28;20083;-75
2021/03/23 05:56:27;;;;;;;13.13;8.18;;;;;;;;;;5054868;28;20040;-75
2021/03/23 05:58:54;;;;;;;14.15;9.13;;;;;;;;;;5054874;28;20141;-75
2021/03/23 06:01:36;;;;;;;18.95;8.70;;;;;;;;;;5054700;28;20441;-75
2021/03/23 06:04:05;;;;;;;13.57;8.05;;;;;;;;;;5055070;28;20024;-75
2021/03/23 06:06:50;;;;;;;13.77;8.13;;;;;;;;;;5054703;28;20025;-76
2021/03/23 06:09:17;;;;;;;22.42;11.30;;;;;;;;;;5053299;28;20028;-66
2021/03/23 06:11:43;;;;;;;20.98;11.10;;;;;;;;;;5054720;28;20151;-67
2021/03/23 06:14:21;;;;;;;21.92;13.38;;;;;;;;;;5037507;28;20037;-67
2021/03/23 06:16:53;;;;;;;17.50;10.65;;;;;;;;;;5037096;28;20390;-68
2021/03/23 06:19:19;;;;;;;19.10;11.45;;;;;;;;;;5054507;28;20146;-67
2021/03/23 06:21:49;;;;;;;18.38;8.98;;;;;;;;;;5053870;28;20029;-68
2021/03/23 06:24:34;;;;;;;13.90;8.40;;;;;;;;;;5054286;28;20108;-67
2021/03/23 06:27:13;;;;;;;15.18;8.68;;;;;;;;;;5054098;28;20075;-66
2021/03/23 06:29:51;;;;;;;14.13;7.78;;;;;;;;;;5033893;28;20029;-66
2021/03/23 06:32:26;;;;;;;14.65;9.15;;;;;;;;;;5034321;28;20489;-67
2021/03/23 06:34:56;;;;;;;12.25;7.47;;;;;;;;;;5033733;28;20052;-68
2021/03/23 06:37:24;;;;;;;15.00;9.05;;;;;;;;;;5033476;28;20024;-68
2021/03/23 06:39:50;;;;;;;13.48;8.07;;;;;;;;;;5034061;28;20033;-68
2021/03/23 06:42:40;;;;;;;17.33;9.98;;;;;;;;;;5033652;28;20021;-69
2021/03/23 06:45:29;;;;;;;15.55;9.57;;;;;;;;;;5031102;28;20052;-69
2021/03/23 06:47:57;;;;;;;15.32;8.88;;;;;;;;;;5041004;28;20041;-72
2021/03/23 06:50:24;;;;;;;22.23;9.45;;;;;;;;;;5053558;28;20021;-74
2021/03/23 06:53:07;;;;;;;16.27;9.82;;;;;;;;;;5051920;28;20454;-72
2021/03/23 06:55:33;;;;;;;17.77;11.00;;;;;;;;;;5042872;28;20039;-73
2021/03/23 06:58:00;;;;;;;16.77;9.82;;;;;;;;;;5051586;28;20029;-71
2021/03/23 07:00:31;;;;;;;17.67;9.98;;;;;;;;;;5049055;28;20033;-74
2021/03/23 07:03:12;;;;;;;19.10;10.45;;;;;;;;;;5050260;28;20498;-71
2021/03/23 07:05:39;;;;;;;17.77;10.27;;;;;;;;;;5067369;28;20131;-70
2021/03/23 07:08:12;;;;;;;18.17;10.98;;;;;;;;;;5052685;28;20041;-70
2021/03/23 07:11:01;;;;;;;16.15;9.85;;;;;;;;;;5048384;28;20381;-70
2021/03/23 07:13:28;;;;;;;18.13;9.63;;;;;;;;;;5032104;28;20378;-72
2021/03/23 07:15:57;;;;;;;17.38;10.60;;;;;;;;;;5031202;28;20033;-69
2021/03/23 07:18:27;;;;;;;19.20;11.50;;;;;;;;;;5030351;28;20032;-71
2021/03/23 07:20:56;;;;;;;13.38;8.15;;;;;;;;;;5031208;28;20033;-72
2021/03/23 07:23:41;;;;;;;21.23;12.13;;;;;;;;;;5030575;28;20018;-71
2021/03/23 07:26:34;;;;;;;15.80;9.55;;;;;;;;;;5032720;28;20033;-71
2021/03/23 07:29:12;;;;;;;18.70;9.90;;;;;;;;;;5030129;28;20036;-72
2021/03/23 07:31:38;;;;;;;21.90;11.82;;;;;;;;;;5028647;28;20029;-73
2021/03/23 07:34:04;;;;;;;15.38;9.43;;;;;;;;;;5039830;28;20029;-72
2021/03/23 07:36:41;;;;;;;20.27;9.77;;;;;;;;;;5047735;28;20029;-72
2021/03/23 07:39:14;;;;;;;18.48;9.50;;;;;;;;;;5047171;28;20029;-71
2021/03/23 07:41:46;;;;;;;20.60;10.27;;;;;;;;;;5049213;28;20021;-72
2021/03/23 07:44:29;;;;;;;17.17;9.10;;;;;;;;;;5045595;28;20273;-73
2021/03/23 07:46:59;;;;;;;17.85;10.40;;;;;;;;;;5048559;28;20112;-76
2021/03/23 07:49:32;;;;;;;12.85;8.57;;;;;;;;;;5037651;28;20021;-78
2021/03/23 07:52:17;;;;;;;14.80;8.73;;;;;;;;;;5048171;28;20049;-75
2021/03/23 07:54:43;;;;;;;12.05;8.23;;;;;;;;;;5044720;28;20095;-74
2021/03/23 07:57:28;;;;;;;42.33;21.75;;;;;;;;;;5045020;28;20110;-74
2021/03/23 08:00:00;;;;;;;18.02;11.15;;;;;;;;;;5049545;28;20112;-74
2021/03/23 08:02:39;;;;;;;15.20;9.70;;;;;;;;;;5050340;28;20405;-74
2021/03/23 08:05:31;;;;;;;13.27;9.20;;;;;;;;;;5042606;28;20064;-75
2021/03/23 08:08:17;;;;;;;16.35;9.27;;;;;;;;;;5049970;28;20037;-72
2021/03/23 08:11:01;;;;;;;15.80;9.20;;;;;;;;;;5052319;28;20063;-75
2021/03/23 08:13:37;;;;;;;12.70;8.60;;;;;;;;;;5049338;28;20087;-76
2021/03/23 08:16:19;;;;;;;20.50;10.07;;;;;;;;;;5031861;28;20110;-75
2021/03/23 08:18:53;;;;;;;17.42;9.63;;;;;;;;;;5031622;28;20087;-75
2021/03/23 08:21:27;;;;;;;14.77;9.45;;;;;;;;;;5031325;28;20025;-75
2021/03/23 08:24:09;;;;;;;13.98;8.80;;;;;;;;;;5030610;28;20113;-74
2021/03/23 08:26:35;;;;;;;15.45;9.13;;;;;;;;;;5031780;28;20096;-75
2021/03/23 08:29:15;;;;;;;13.25;8.55;;;;;;;;;;5031404;28;20026;-77
2021/03/23 08:31:44;;;;;;;18.83;10.75;;;;;;;;;;5030887;28;20036;-76
2021/03/23 08:34:21;;;;;;;13.77;9.00;;;;;;;;;;5031963;28;20026;-75
2021/03/23 08:36:57;;;;;;;14.75;8.82;;;;;;;;;;5030236;28;20026;-72
2021/03/23 08:39:31;;;;;;;14.45;8.55;;;;;;;;;;5050071;28;20086;-73
2021/03/23 08:42:03;;;;;;;14.70;10.13;;;;;;;;;;5051041;28;20519;-73
2021/03/23 08:44:45;;;;;;;16.10;9.40;;;;;;;;;;5043794;28;20029;-72
2021/03/23 08:47:32;;;;;;;12.43;7.95;;;;;;;;;;5043530;28;20036;-72
2021/03/23 08:50:19;;;;;;;14.25;9.60;;;;;;;;;;5047925;28;20064;-71
2021/03/23 08:52:47;;;;;;;14.95;9.38;;;;;;;;;;5030061;28;20065;-73
2021/03/23 08:55:25;;;;;;;18.52;10.95;;;;;;;;;;5048610;28;20120;-71
2021/03/23 08:57:59;;;;;;;14.05;8.60;;;;;;;;;;5050838;28;20021;-72
2021/03/23 09:00:37;;;;;;;15.43;9.30;;;;;;;;;;5049309;28;20675;-74
2021/03/23 09:03:09;;;;;;;16.35;9.63;;;;;;;;;;5049118;28;20067;-74
2021/03/23 09:05:45;;;;;;;15.07;7.93;;;;;;;;;;5031446;28;20026;-74
2021/03/23 09:08:30;;;;;;;17.65;10.00;;;;;;;;;;5030278;28;20296;-71
2021/03/23 09:10:57;;;;;;;13.15;8.35;;;;;;;;;;5040143;28;20461;-71
2021/03/23 09:13:23;;;;;;;12.80;8.23;;;;;;;;;;5046764;28;20068;-73
2021/03/23 09:15:51;;;;;;;13.48;8.55;;;;;;;;;;5051046;28;20037;-73
2021/03/23 09:18:17;;;;;;;14.35;8.48;;;;;;;;;;5047063;28;20188;-72
2021/03/23 09:20:43;;;;;;;16.63;7.65;;;;;;;;;;5033646;28;20025;-71
2021/03/23 09:23:18;;;;;;;17.08;9.77;;;;;;;;;;5035108;28;20034;-72
2021/03/23 09:25:48;;;;;;;25.30;10.45;;;;;;;;;;5035198;28;20025;-72
2021/03/23 09:28:39;;;;;;;12.38;7.43;;;;;;;;;;5035343;28;20026;-71
2021/03/23 09:31:12;;;;;;;13.30;9.43;;;;;;;;;;5031277;28;20037;-71
2021/03/23 09:33:43;;;;;;;14.02;9.05;;;;;;;;;;5037236;28;20059;-72
2021/03/23 09:36:12;;;;;;;16.50;8.30;;;;;;;;;;5053657;28;20444;-72
2021/03/23 09:38:39;;;;;;;16.80;9.07;;;;;;;;;;5053662;28;20489;-70
2021/03/23 09:41:07;;;;;;;16.33;9.75;;;;;;;;;;5035088;28;20052;-71
2021/03/23 09:43:41;;;;;;;15.05;8.65;;;;;;;;;;5035097;28;20409;-72
2021/03/23 09:46:13;;;;;;;13.40;7.82;;;;;;;;;;5034311;28;20108;-72
2021/03/23 09:48:50;;;;;;;12.63;6.60;;;;;;;;;;5033344;28;20028;-69
2021/03/23 09:51:19;;;;;;;17.20;7.28;;;;;;;;;;5033564;28;20565;-70
2021/03/23 09:53:45;;;;;;;17.63;7.78;;;;;;;;;;5034385;28;20073;-70
2021/03/23 09:56:11;;;;;;;14.55;9.05;;;;;;;;;;5046021;28;20515;-73
2021/03/23 09:58:38;;;;;;;16.52;9.35;;;;;;;;;;5044487;28;20061;-71
2021/03/23 10:01:19;;;;;;;21.52;9.45;;;;;;;;;;5032889;28;20033;-70
2021/03/23 10:03:46;;;;;;;11.48;6.88;;;;;;;;;;5043353;28;20017;-73
2021/03/23 10:06:15;;;;;;;13.15;7.90;;;;;;;;;;5053954;28;20024;-70
2021/03/23 10:08:51;;;;;;;18.75;7.95;;;;;;;;;;5054192;28;20107;-72
2021/03/23 10:11:18;;;;;;;13.05;8.10;;;;;;;;;;5054276;28;20021;-75
2021/03/23 10:13:50;;;;;;;13.32;8.32;;;;;;;;;;5052765;28;20086;-69
2021/03/23 10:16:23;;;;;;;14.32;8.32;;;;;;;;;;5053860;28;20040;-71
2021/03/23 10:18:49;;;;;;;;;;;;;;;;;;5054746;28;20476;-70
2021/03/23 10:21:17;;;;;;;14.85;7.32;;;;;;;;;;5053765;28;19940;-72
2021/03/23 10:23:47;;;;;;;12.13;7.93;;;;;;;;;;5052725;28;20017;-73
2021/03/23 10:26:14;;;;;;;12.27;7.38;;;;;;;;;;5050531;28;20031;-72
2021/03/23 10:28:49;;;;;;;15.65;8.75;;;;;;;;;;5047527;28;20090;-73
2021/03/23 10:31:29;;;;;;;11.10;7.13;;;;;;;;;;5052501;28;20021;-70
2021/03/23 10:34:03;;;;;;;13.23;7.85;;;;;;;;;;5042764;28;20028;-71
2021/03/23 10:36:41;;;;;;;15.45;7.90;;;;;;;;;;5042817;28;20048;-70
2021/03/23 10:39:25;;;;;;;13.18;7.10;;;;;;;;;;5053103;28;20017;-78
2021/03/23 10:41:51;;;;;;;12.90;7.97;;;;;;;;;;5052533;28;20040;-74
2021/03/23 10:44:22;;;;;;;21.33;10.38;;;;;;;;;;5047642;28;20025;-74
2021/03/23 10:46:54;;;;;;;12.15;7.60;;;;;;;;;;5050157;28;20064;-73
2021/03/23 10:49:26;;;;;;;14.23;8.15;;;;;;;;;;5049850;28;20017;-73
2021/03/23 10:51:57;;;;;;;15.70;9.10;;;;;;;;;;5051667;28;20059;-71
2021/03/23 10:54:24;;;;;;;14.77;8.80;;;;;;;;;;5047107;28;20039;-72
2021/03/23 10:56:55;;;;;;;17.63;10.10;;;;;;;;;;5050249;28;20028;-70
2021/03/23 10:59:29;;;;;;;18.63;9.70;;;;;;;;;;5051450;28;20774;-71
2021/03/23 11:02:02;;;;;;;17.67;9.82;;;;;;;;;;5051597;28;20025;-71
2021/03/23 11:04:29;;;;;;;15.15;9.68;;;;;;;;;;5039659;28;20035;-72
2021/03/23 11:06:55;;;;;;;12.55;7.75;;;;;;;;;;5034522;28;20029;-71
2021/03/23 11:09:21;;;;;;;13.25;8.23;;;;;;;;;;5042891;28;20486;-72
2021/03/23 11:11:51;;;;;;;13.13;8.20;;;;;;;;;;5049703;28;20536;-71
2021/03/23 11:14:19;;;;;;;18.63;10.35;;;;;;;;;;5049248;28;20104;-71
2021/03/23 11:16:46;;;;;;;21.77;9.73;;;;;;;;;;5052856;28;20485;-70
2021/03/23 11:19:32;;;;;;;14.77;7.85;;;;;;;;;;5051738;28;20063;-71
2021/03/23 11:22:04;;;;;;;16.00;9.43;;;;;;;;;;5052916;28;20025;-71
2021/03/23 11:24:30;;;;;;;16.27;8.80;;;;;;;;;;5052646;28;20035;-71
2021/03/23 11:26:58;;;;;;;18.38;11.07;;;;;;;;;;5053248;28;20543;-72
2021/03/23 11:29:25;;;;;;;12.00;7.78;;;;;;;;;;5053291;28;20443;-72
2021/03/23 11:31:52;;;;;;;12.40;7.97;;;;;;;;;;5052907;28;20031;-72
2021/03/23 11:34:18;;;;;;;14.02;8.20;;;;;;;;;;5052662;28;20021;-73
2021/03/23 11:36:44;;;;;;;16.42;8.77;;;;;;;;;;5053001;28;20044;-72
2021/03/23 11:39:13;;;;;;;17.67;9.13;;;;;;;;;;5052484;28;20025;-74
2021/03/23 11:41:41;;;;;;;15.27;10.18;;;;;;;;;;5046533;28;20020;-71
2021/03/23 11:44:11;;;;;;;13.00;7.95;;;;;;;;;;5051354;28;20057;-76
2021/03/23 11:46:41;;;;;;;14.63;9.15;;;;;;;;;;5052415;28;20025;-74
2021/03/23 11:49:12;;;;;;;12.70;8.02;;;;;;;;;;5052656;28;20074;-74
2021/03/23 11:51:40;;;;;;;12.65;8.07;;;;;;;;;;5052238;28;20037;-74
2021/03/23 11:54:07;;;;;;;14.55;9.80;;;;;;;;;;5052410;28;20037;-73
2021/03/23 11:56:33;;;;;;;12.65;8.15;;;;;;;;;;5052513;28;20428;-74
2021/03/23 11:58:59;;;;;;;16.58;10.25;;;;;;;;;;5051397;28;20078;-72
2021/03/23 12:01:26;;;;;;;14.25;9.07;;;;;;;;;;5052504;28;20031;-74
2021/03/23 12:03:52;;;;;;;14.65;8.27;;;;;;;;;;5047922;28;20529;-71
2021/03/23 12:06:25;;;;;;;14.43;9.57;;;;;;;;;;5048156;28;20636;-72
2021/03/23 12:08:57;;;;;;;12.07;7.90;;;;;;;;;;5052661;28;20377;-73
2021/03/23 12:11:34;;;;;;;14.25;8.55;;;;;;;;;;5052179;28;20108;-73
2021/03/23 12:14:15;;;;;;;13.20;9.05;;;;;;;;;;5050518;28;20108;-73
2021/03/23 12:17:00;;;;;;;12.65;8.80;;;;;;;;;;5052069;28;20060;-73
2021/03/23 12:19:30;;;;;;;16.63;9.50;;;;;;;;;;5050952;28;20021;-72
2021/03/23 12:21:57;;;;;;;18.50;10.30;;;;;;;;;;5044404;28;20025;-72
2021/03/23 12:24:23;;;;;;;13.95;8.38;;;;;;;;;;5050732;28;20108;-77
2021/03/23 12:26:50;;;;;;;13.38;8.80;;;;;;;;;;5052313;28;20096;-76
2021/03/23 12:29:17;;;;;;;13.98;9.48;;;;;;;;;;5052520;28;20654;-76
2021/03/23 12:31:44;;;;;;;15.77;10.45;;;;;;;;;;5052133;28;20022;-76
2021/03/23 12:34:10;;;;;;;20.00;9.27;;;;;;;;;;5035080;28;20025;-77
2021/03/23 12:36:38;;;;;;;16.70;9.77;;;;;;;;;;5031130;28;20036;-76
2021/03/23 12:39:05;;;;;;;20.38;11.95;;;;;;;;;;5031579;28;20028;-77
2021/03/23 12:41:33;;;;;;;18.15;10.27;;;;;;;;;;5032562;28;20028;-69
2021/03/23 12:43:59;;;;;;;14.15;8.52;;;;;;;;;;5045982;28;20022;-70
2021/03/23 12:46:26;;;;;;;14.90;9.00;;;;;;;;;;5031897;28;20052;-69
2021/03/23 12:48:52;;;;;;;16.10;9.13;;;;;;;;;;5031821;28;20474;-69
2021/03/23 12:51:23;;;;;;;12.45;7.80;;;;;;;;;;5032245;28;20099;-70
2021/03/23 12:53:50;;;;;;;16.65;9.55;;;;;;;;;;5047260;28;20029;-71
2021/03/23 12:56:18;;;;;;;17.42;9.60;;;;;;;;;;5034910;28;20409;-71
2021/03/23 12:58:45;;;;;;;18.00;9.18;;;;;;;;;;5034116;28;20075;-72
2021/03/23 13:01:12;;;;;;;14.10;8.63;;;;;;;;;;5034136;28;20033;-71
2021/03/23 13:03:38;;;;;;;15.10;9.05;;;;;;;;;;5034337;28;20029;-70
2021/03/23 13:06:06;;;;;;;21.92;12.82;;;;;;;;;;5035657;28;20075;-71
2021/03/23 13:08:34;;;;;;;23.63;13.93;;;;;;;;;;5035925;28;20032;-71
2021/03/23 13:11:05;;;;;;;19.10;10.43;;;;;;;;;;5035483;28;20511;-71
2021/03/23 13:14:54;;;;;;;22.08;13.15;;;;;;;;;;5069681;28;20388;-72
2021/03/23 13:17:25;;;;;;;19.13;12.38;;;;;;;;;;5069335;28;20029;-72
2021/03/23 13:19:51;;;;;;;23.17;13.40;;;;;;;;;;5069759;28;20021;-72
2021/03/23 13:23:50;;;;;;;15.60;9.40;;;;;;;;;;5109753;27;20825;-70
2021/03/23 13:26:16;;;;;;;16.55;10.75;;;;;;;;;;5110270;28;20023;-72
2021/03/23 13:29:58;;;;;;;18.70;11.73;;;;;;;;;;5111002;27;20381;-73
2021/03/23 13:32:25;;;;;;;19.05;11.52;;;;;;;;;;5108953;28;20030;-72
2021/03/23 13:34:52;;;;;;;26.38;15.52;;;;;;;;;;5110267;28;20027;-72
2021/03/23 13:37:23;;;;;;;16.73;10.20;;;;;;;;;;5110011;28;20712;-72
2021/03/23 13:43:19;;;;;;;28.33;15.15;;;;;;;;;;5110331;27;20419;-71
2021/03/23 13:45:50;;;;;;;17.45;10.02;;;;;;;;;;5109909;28;20057;-70
2021/03/23 13:50:22;;;;;;;20.48;11.43;;;;;;;;;;5069859;28;20760;-71
2021/03/23 13:52:50;;;;;;;18.08;11.40;;;;;;;;;;5069303;28;20071;-71
2021/03/23 13:55:28;;;;;;;18.00;10.57;;;;;;;;;;5069567;28;20132;-72
2021/03/23 13:57:57;;;;;;;14.32;9.30;;;;;;;;;;5069720;28;20023;-71
2021/03/23 14:00:28;;;;;;;18.83;11.02;;;;;;;;;;5069426;28;20389;-71
2021/03/23 14:02:54;;;;;;;17.80;9.60;;;;;;;;;;5069497;28;20386;-71
2021/03/23 14:05:20;;;;;;;19.83;11.80;;;;;;;;;;5069002;28;20024;-71
2021/03/23 14:07:50;;;;;;;18.20;12.43;;;;;;;;;;5069475;28;20021;-71
2021/03/23 14:11:03;;;;;;;17.02;11.35;;;;;;;;;;5110325;27;20430;-73
2021/03/23 14:13:30;;;;;;;16.08;10.20;;;;;;;;;;5108542;28;20093;-72
2021/03/23 14:18:11;;;;;;;13.27;7.97;;;;;;;;;;5110189;27;20442;-70
2021/03/23 14:21:22;;;;;;;17.23;9.65;;;;;;;;;;5109886;27;20545;-71
2021/03/23 14:23:49;;;;;;;12.77;8.48;;;;;;;;;;5110175;28;20119;-71
2021/03/23 14:26:16;;;;;;;15.05;9.90;;;;;;;;;;5109899;28;20016;-71
2021/03/23 14:28:50;;;;;;;14.68;9.65;;;;;;;;;;5110335;28;20484;-71
2021/03/23 14:31:29;;;;;;;21.55;11.07;;;;;;;;;;5130812;27;20315;-71
2021/03/23 14:34:42;;;;;;;20.23;12.68;;;;;;;;;;5109969;27;20721;-72
2021/03/23 14:37:12;;;;;;;26.15;14.80;;;;;;;;;;5109741;28;20343;-71
2021/03/23 14:39:40;;;;;;;16.17;10.50;;;;;;;;;;5110203;28;20044;-70
2021/03/23 14:42:30;;;;;;;27.63;13.95;;;;;;;;;;5109987;27;20839;-71
2021/03/23 14:44:56;;;;;;;21.17;13.75;;;;;;;;;;5089965;28;20480;-70
2021/03/23 14:47:27;;;;;;;17.15;10.77;;;;;;;;;;5089504;28;20372;-70
2021/03/23 14:49:55;;;;;;;21.33;13.43;;;;;;;;;;5089924;28;20020;-69
2021/03/23 14:52:23;;;;;;;20.40;11.90;;;;;;;;;;5089874;28;20031;-71
2021/03/23 14:55:58;;;;;;;21.75;12.57;;;;;;;;;;5109858;27;20430;-70
2021/03/23 14:58:24;;;;;;;18.23;12.35;;;;;;;;;;5110321;28;20028;-70
2021/03/23 15:00:50;;;;;;;16.23;9.55;;;;;;;;;;5109999;28;20024;-70